sensor_id;sensor_type;location;lat;lon;timestamp;pressure;altitude;pressure_sealevel;temperature;humidity
23446;BME280;11895;48.738;9.320;2023-07-02T00:00:13;98204.72;;;17.84;100.00
23446;BME280;11895;48.738;9.320;2023-07-02T00:02:41;98208.91;;;17.88;100.00
23446;BME280;11895;48.738;9.320;2023-07-02T00:05:09;98210.13;;;17.95;100.00
23446;BME280;11895;48.738;9.320;2023-07-02T00:07:37;98207.59;;;18.03;100.00
23446;BME280;11895;48.738;9.320;2023-07-02T00:10:05;98206.31;;;18.07;100.00
23446;BME280;11895;48.738;9.320;2023-07-02T00:12:33;98207.88;;;18.00;100.00
23446;BME280;11895;48.738;9.320;2023-07-02T00:15:02;98213.44;;;17.78;100.00
23446;BME280;11895;48.738;9.320;2023-07-02T00:17:30;98211.16;;;17.83;100.00
23446;BME280;11895;48.738;9.320;2023-07-02T00:19:58;98213.84;;;17.94;100.00
23446;BME280;11895;48.738;9.320;2023-07-02T00:22:29;98218.31;;;17.95;100.00
23446;BME280;11895;48.738;9.320;2023-07-02T00:24:57;98218.78;;;18.00;100.00
23446;BME280;11895;48.738;9.320;2023-07-02T00:27:24;98211.53;;;17.89;100.00
23446;BME280;11895;48.738;9.320;2023-07-02T00:29:52;98222.44;;;17.89;100.00
23446;BME280;11895;48.738;9.320;2023-07-02T00:32:19;98222.06;;;17.83;100.00
23446;BME280;11895;48.738;9.320;2023-07-02T00:34:47;98214.28;;;17.78;100.00
23446;BME280;11895;48.738;9.320;2023-07-02T00:37:14;98220.00;;;17.75;100.00
23446;BME280;11895;48.738;9.320;2023-07-02T00:39:42;98221.88;;;17.63;100.00
23446;BME280;11895;48.738;9.320;2023-07-02T00:42:09;98216.97;;;17.57;100.00
23446;BME280;11895;48.738;9.320;2023-07-02T00:44:39;98215.31;;;17.34;100.00
23446;BME280;11895;48.738;9.320;2023-07-02T00:47:09;98211.19;;;17.51;100.00
23446;BME280;11895;48.738;9.320;2023-07-02T00:49:39;98208.78;;;17.57;100.00
23446;BME280;11895;48.738;9.320;2023-07-02T00:52:07;98214.38;;;17.56;100.00
23446;BME280;11895;48.738;9.320;2023-07-02T00:54:34;98222.16;;;17.60;100.00
23446;BME280;11895;48.738;9.320;2023-07-02T00:57:03;98215.09;;;17.58;100.00
23446;BME280;11895;48.738;9.320;2023-07-02T00:59:34;98215.72;;;17.50;100.00
23446;BME280;11895;48.738;9.320;2023-07-02T01:02:03;98224.13;;;17.58;100.00
23446;BME280;11895;48.738;9.320;2023-07-02T01:04:32;98223.59;;;17.64;100.00
23446;BME280;11895;48.738;9.320;2023-07-02T01:07:00;98219.44;;;17.49;100.00
23446;BME280;11895;48.738;9.320;2023-07-02T01:09:28;98224.53;;;16.99;100.00
23446;BME280;11895;48.738;9.320;2023-07-02T01:12:07;98224.00;;;17.28;100.00
23446;BME280;11895;48.738;9.320;2023-07-02T01:14:41;98228.38;;;17.51;100.00
23446;BME280;11895;48.738;9.320;2023-07-02T01:17:11;98228.19;;;17.64;100.00
23446;BME280;11895;48.738;9.320;2023-07-02T01:22:20;98219.72;;;17.78;100.00
23446;BME280;11895;48.738;9.320;2023-07-02T01:24:53;98224.06;;;17.81;100.00
23446;BME280;11895;48.738;9.320;2023-07-02T01:27:22;98224.53;;;17.86;100.00
23446;BME280;11895;48.738;9.320;2023-07-02T01:29:53;98226.03;;;17.79;100.00
23446;BME280;11895;48.738;9.320;2023-07-02T01:32:22;98227.50;;;17.83;100.00
23446;BME280;11895;48.738;9.320;2023-07-02T01:34:51;98222.06;;;17.83;100.00
23446;BME280;11895;48.738;9.320;2023-07-02T01:37:20;98233.97;;;17.82;100.00
23446;BME280;11895;48.738;9.320;2023-07-02T01:39:48;98233.50;;;17.77;100.00
23446;BME280;11895;48.738;9.320;2023-07-02T01:42:20;98240.66;;;17.78;100.00
23446;BME280;11895;48.738;9.320;2023-07-02T01:44:49;98222.25;;;17.70;100.00
23446;BME280;11895;48.738;9.320;2023-07-02T01:47:18;98219.63;;;17.68;100.00
23446;BME280;11895;48.738;9.320;2023-07-02T01:49:47;98210.59;;;17.68;100.00
23446;BME280;11895;48.738;9.320;2023-07-02T01:52:14;98200.59;;;17.25;100.00
23446;BME280;11895;48.738;9.320;2023-07-02T01:54:43;98211.66;;;17.44;100.00
23446;BME280;11895;48.738;9.320;2023-07-02T01:57:11;98214.53;;;17.43;100.00
23446;BME280;11895;48.738;9.320;2023-07-02T01:59:39;98217.47;;;17.51;100.00
23446;BME280;11895;48.738;9.320;2023-07-02T02:02:06;98227.63;;;17.49;100.00
23446;BME280;11895;48.738;9.320;2023-07-02T02:04:35;98235.00;;;17.58;100.00
23446;BME280;11895;48.738;9.320;2023-07-02T02:07:03;98239.50;;;17.48;100.00
23446;BME280;11895;48.738;9.320;2023-07-02T02:09:32;98237.25;;;17.53;100.00
23446;BME280;11895;48.738;9.320;2023-07-02T02:12:00;98240.22;;;17.50;100.00
23446;BME280;11895;48.738;9.320;2023-07-02T02:14:31;98247.84;;;17.67;100.00
23446;BME280;11895;48.738;9.320;2023-07-02T02:16:59;98242.66;;;17.64;100.00
23446;BME280;11895;48.738;9.320;2023-07-02T02:19:26;98243.41;;;17.66;100.00
23446;BME280;11895;48.738;9.320;2023-07-02T02:21:54;98246.41;;;17.75;100.00
23446;BME280;11895;48.738;9.320;2023-07-02T02:24:21;98234.00;;;17.70;100.00
23446;BME280;11895;48.738;9.320;2023-07-02T02:26:48;98240.81;;;17.76;100.00
23446;BME280;11895;48.738;9.320;2023-07-02T02:29:16;98227.91;;;17.78;100.00
23446;BME280;11895;48.738;9.320;2023-07-02T02:31:44;98228.31;;;17.62;100.00
23446;BME280;11895;48.738;9.320;2023-07-02T02:34:15;98230.28;;;17.71;100.00
23446;BME280;11895;48.738;9.320;2023-07-02T02:36:42;98228.53;;;17.70;100.00
23446;BME280;11895;48.738;9.320;2023-07-02T02:39:11;98228.53;;;17.70;100.00
23446;BME280;11895;48.738;9.320;2023-07-02T02:41:39;98220.69;;;17.45;100.00
23446;BME280;11895;48.738;9.320;2023-07-02T02:44:06;98219.22;;;17.52;100.00
23446;BME280;11895;48.738;9.320;2023-07-02T02:46:34;98227.94;;;17.24;100.00
23446;BME280;11895;48.738;9.320;2023-07-02T02:49:02;98224.41;;;17.55;100.00
23446;BME280;11895;48.738;9.320;2023-07-02T02:51:33;98230.78;;;17.65;100.00
23446;BME280;11895;48.738;9.320;2023-07-02T02:54:00;98223.59;;;17.64;100.00
23446;BME280;11895;48.738;9.320;2023-07-02T02:56:31;98225.47;;;17.64;100.00
23446;BME280;11895;48.738;9.320;2023-07-02T02:58:58;98230.06;;;17.75;100.00
23446;BME280;11895;48.738;9.320;2023-07-02T03:01:26;98222.44;;;17.46;100.00
23446;BME280;11895;48.738;9.320;2023-07-02T03:03:59;98225.84;;;17.59;100.00
23446;BME280;11895;48.738;9.320;2023-07-02T03:06:27;98228.28;;;17.73;100.00
23446;BME280;11895;48.738;9.320;2023-07-02T03:08:55;98239.56;;;17.80;100.00
23446;BME280;11895;48.738;9.320;2023-07-02T03:11:22;98243.75;;;17.84;100.00
23446;BME280;11895;48.738;9.320;2023-07-02T03:13:49;98245.09;;;17.90;100.00
23446;BME280;11895;48.738;9.320;2023-07-02T03:16:17;98248.78;;;17.89;100.00
23446;BME280;11895;48.738;9.320;2023-07-02T03:18:44;98254.91;;;18.02;100.00
23446;BME280;11895;48.738;9.320;2023-07-02T03:21:11;98243.78;;;17.73;100.00
23446;BME280;11895;48.738;9.320;2023-07-02T03:23:38;98254.75;;;17.83;100.00
23446;BME280;11895;48.738;9.320;2023-07-02T03:26:06;98245.09;;;17.90;100.00
23446;BME280;11895;48.738;9.320;2023-07-02T03:28:33;98255.44;;;17.96;100.00
23446;BME280;11895;48.738;9.320;2023-07-02T03:31:02;98256.03;;;17.67;100.00
23446;BME280;11895;48.738;9.320;2023-07-02T03:33:29;98268.47;;;17.49;100.00
23446;BME280;11895;48.738;9.320;2023-07-02T03:35:57;98272.59;;;17.21;100.00
23446;BME280;11895;48.738;9.320;2023-07-02T03:38:24;98283.28;;;17.13;100.00
23446;BME280;11895;48.738;9.320;2023-07-02T03:40:51;98291.94;;;16.73;100.00
23446;BME280;11895;48.738;9.320;2023-07-02T03:43:19;98295.00;;;16.68;100.00
23446;BME280;11895;48.738;9.320;2023-07-02T03:45:47;98301.16;;;16.59;100.00
23446;BME280;11895;48.738;9.320;2023-07-02T03:48:14;98307.19;;;16.40;100.00
23446;BME280;11895;48.738;9.320;2023-07-02T03:50:41;98301.41;;;16.56;100.00
23446;BME280;11895;48.738;9.320;2023-07-02T03:53:09;98308.47;;;16.59;100.00
23446;BME280;11895;48.738;9.320;2023-07-02T03:55:36;98305.34;;;16.52;100.00
23446;BME280;11895;48.738;9.320;2023-07-02T03:58:04;98310.13;;;16.84;100.00
23446;BME280;11895;48.738;9.320;2023-07-02T04:00:32;98309.34;;;17.15;100.00
23446;BME280;11895;48.738;9.320;2023-07-02T04:02:59;98308.88;;;17.21;100.00
23446;BME280;11895;48.738;9.320;2023-07-02T04:05:27;98313.44;;;17.32;100.00
23446;BME280;11895;48.738;9.320;2023-07-02T04:07:55;98313.81;;;17.28;100.00
23446;BME280;11895;48.738;9.320;2023-07-02T04:10:22;98316.25;;;17.42;100.00
23446;BME280;11895;48.738;9.320;2023-07-02T04:12:50;98320.81;;;17.53;100.00
23446;BME280;11895;48.738;9.320;2023-07-02T04:15:17;98326.38;;;17.62;100.00
23446;BME280;11895;48.738;9.320;2023-07-02T04:17:44;98326.84;;;17.79;100.00
23446;BME280;11895;48.738;9.320;2023-07-02T04:20:11;98331.03;;;17.83;100.00
23446;BME280;11895;48.738;9.320;2023-07-02T04:22:39;98333.66;;;17.84;100.00
23446;BME280;11895;48.738;9.320;2023-07-02T04:25:07;98332.75;;;17.95;100.00
23446;BME280;11895;48.738;9.320;2023-07-02T04:27:54;98348.09;;;17.96;100.00
23446;BME280;11895;48.738;9.320;2023-07-02T04:30:24;98343.13;;;18.01;100.00
23446;BME280;11895;48.738;9.320;2023-07-02T04:32:52;98342.22;;;17.80;100.00
23446;BME280;11895;48.738;9.320;2023-07-02T04:35:20;98340.94;;;17.84;100.00
23446;BME280;11895;48.738;9.320;2023-07-02T04:37:47;98340.91;;;17.95;100.00
23446;BME280;11895;48.738;9.320;2023-07-02T04:40:14;98342.13;;;18.02;100.00
23446;BME280;11895;48.738;9.320;2023-07-02T04:42:42;98345.84;;;18.01;100.00
23446;BME280;11895;48.738;9.320;2023-07-02T04:45:15;98354.34;;;18.08;100.00
23446;BME280;11895;48.738;9.320;2023-07-02T04:47:45;98346.16;;;18.19;100.00
23446;BME280;11895;48.738;9.320;2023-07-02T04:50:16;98352.09;;;18.13;100.00
23446;BME280;11895;48.738;9.320;2023-07-02T04:52:44;98343.75;;;18.26;100.00
23446;BME280;11895;48.738;9.320;2023-07-02T04:55:12;98344.38;;;18.29;100.00
23446;BME280;11895;48.738;9.320;2023-07-02T04:57:39;98354.22;;;18.41;100.00
23446;BME280;11895;48.738;9.320;2023-07-02T05:00:07;98345.16;;;18.41;100.00
23446;BME280;11895;48.738;9.320;2023-07-02T05:02:35;98351.03;;;18.57;100.00
23446;BME280;11895;48.738;9.320;2023-07-02T05:05:02;98354.63;;;18.58;100.00
23446;BME280;11895;48.738;9.320;2023-07-02T05:07:34;98358.22;;;18.58;100.00
23446;BME280;11895;48.738;9.320;2023-07-02T05:10:01;98367.59;;;18.65;100.00
23446;BME280;11895;48.738;9.320;2023-07-02T05:12:30;98366.78;;;18.33;100.00
23446;BME280;11895;48.738;9.320;2023-07-02T05:14:57;98367.91;;;18.30;100.00
23446;BME280;11895;48.738;9.320;2023-07-02T05:17:25;98374.59;;;18.37;100.00
23446;BME280;11895;48.738;9.320;2023-07-02T05:19:52;98380.50;;;18.63;100.00
23446;BME280;11895;48.738;9.320;2023-07-02T05:22:19;98377.69;;;18.86;100.00
23446;BME280;11895;48.738;9.320;2023-07-02T05:24:48;98385.72;;;18.87;100.00
23446;BME280;11895;48.738;9.320;2023-07-02T05:27:15;98394.03;;;19.07;100.00
23446;BME280;11895;48.738;9.320;2023-07-02T05:29:43;98407.09;;;19.03;100.00
23446;BME280;11895;48.738;9.320;2023-07-02T05:32:11;98401.53;;;19.14;100.00
23446;BME280;11895;48.738;9.320;2023-07-02T05:34:38;98402.88;;;18.99;100.00
23446;BME280;11895;48.738;9.320;2023-07-02T05:37:06;98396.63;;;19.08;100.00
23446;BME280;11895;48.738;9.320;2023-07-02T05:39:34;98392.63;;;18.70;100.00
23446;BME280;11895;48.738;9.320;2023-07-02T05:42:02;98386.31;;;19.12;100.00
23446;BME280;11895;48.738;9.320;2023-07-02T05:44:29;98394.63;;;19.41;100.00
23446;BME280;11895;48.738;9.320;2023-07-02T05:46:57;98403.47;;;19.54;100.00
23446;BME280;11895;48.738;9.320;2023-07-02T05:49:24;98405.84;;;19.68;100.00
23446;BME280;11895;48.738;9.320;2023-07-02T05:51:53;98399.59;;;19.87;100.00
23446;BME280;11895;48.738;9.320;2023-07-02T05:54:20;98404.19;;;19.96;100.00
23446;BME280;11895;48.738;9.320;2023-07-02T05:56:48;98404.03;;;19.88;100.00
23446;BME280;11895;48.738;9.320;2023-07-02T05:59:15;98405.91;;;19.88;100.00
23446;BME280;11895;48.738;9.320;2023-07-02T06:01:45;98398.56;;;19.88;100.00
23446;BME280;11895;48.738;9.320;2023-07-02T06:04:12;98401.03;;;20.01;100.00
23446;BME280;11895;48.738;9.320;2023-07-02T06:06:40;98405.59;;;19.91;100.00
23446;BME280;11895;48.738;9.320;2023-07-02T06:09:08;98403.75;;;20.01;100.00
23446;BME280;11895;48.738;9.320;2023-07-02T06:11:35;98402.34;;;19.97;100.00
23446;BME280;11895;48.738;9.320;2023-07-02T06:14:02;98404.78;;;20.00;100.00
23446;BME280;11895;48.738;9.320;2023-07-02T06:16:29;98410.25;;;20.10;100.00
23446;BME280;11895;48.738;9.320;2023-07-02T06:18:57;98405.59;;;19.91;100.00
23446;BME280;11895;48.738;9.320;2023-07-02T06:21:24;98408.97;;;20.04;100.00
23446;BME280;11895;48.738;9.320;2023-07-02T06:23:57;98413.59;;;20.23;100.00
23446;BME280;11895;48.738;9.320;2023-07-02T06:26:29;98404.38;;;20.14;100.00
23446;BME280;11895;48.738;9.320;2023-07-02T06:28:57;98403.91;;;19.99;100.00
23446;BME280;11895;48.738;9.320;2023-07-02T06:31:25;98409.13;;;20.12;100.00
23446;BME280;11895;48.738;9.320;2023-07-02T06:33:53;98414.63;;;20.22;100.00
23446;BME280;11895;48.738;9.320;2023-07-02T06:36:20;98414.78;;;20.59;100.00
23446;BME280;11895;48.738;9.320;2023-07-02T06:38:47;98408.88;;;20.83;100.00
23446;BME280;11895;48.738;9.320;2023-07-02T06:41:15;98408.31;;;20.79;100.00
23446;BME280;11895;48.738;9.320;2023-07-02T06:43:43;98415.50;;;21.00;100.00
23446;BME280;11895;48.738;9.320;2023-07-02T06:46:12;98412.16;;;21.06;100.00
23446;BME280;11895;48.738;9.320;2023-07-02T06:48:39;98417.66;;;20.96;100.00
23446;BME280;11895;48.738;9.320;2023-07-02T06:51:07;98417.75;;;21.14;100.00
23446;BME280;11895;48.738;9.320;2023-07-02T06:53:36;98414.44;;;21.11;100.00
23446;BME280;11895;48.738;9.320;2023-07-02T06:56:05;98415.50;;;21.00;100.00
23446;BME280;11895;48.738;9.320;2023-07-02T06:58:32;98415.34;;;21.01;100.00
23446;BME280;11895;48.738;9.320;2023-07-02T07:00:59;98423.91;;;21.26;100.00
23446;BME280;11895;48.738;9.320;2023-07-02T07:03:26;98423.44;;;21.50;100.00
23446;BME280;11895;48.738;9.320;2023-07-02T07:05:55;98424.75;;;21.46;100.00
23446;BME280;11895;48.738;9.320;2023-07-02T07:08:47;98431.94;;;20.81;100.00
23446;BME280;11895;48.738;9.320;2023-07-02T07:11:15;98428.03;;;20.93;100.00
23446;BME280;11895;48.738;9.320;2023-07-02T07:13:42;98440.53;;;21.34;100.00
23446;BME280;11895;48.738;9.320;2023-07-02T07:16:11;98419.97;;;21.58;100.00
23446;BME280;11895;48.738;9.320;2023-07-02T07:18:40;98419.75;;;21.32;100.00
23446;BME280;11895;48.738;9.320;2023-07-02T07:21:08;98421.06;;;21.65;100.00
23446;BME280;11895;48.738;9.320;2023-07-02T07:23:36;98418.50;;;21.63;100.00
23446;BME280;11895;48.738;9.320;2023-07-02T07:26:03;98425.81;;;21.72;100.00
23446;BME280;11895;48.738;9.320;2023-07-02T07:28:31;98428.16;;;21.67;100.00
23446;BME280;11895;48.738;9.320;2023-07-02T07:30:58;98425.38;;;21.77;100.00
23446;BME280;11895;48.738;9.320;2023-07-02T07:33:25;98422.66;;;22.22;100.00
23446;BME280;11895;48.738;9.320;2023-07-02T07:35:53;98423.41;;;22.24;100.00
23446;BME280;11895;48.738;9.320;2023-07-02T07:38:20;98439.38;;;22.01;100.00
23446;BME280;11895;48.738;9.320;2023-07-02T07:40:47;98426.94;;;22.07;100.00
23446;BME280;11895;48.738;9.320;2023-07-02T07:43:15;98424.38;;;21.68;100.00
23446;BME280;11895;48.738;9.320;2023-07-02T07:45:43;98441.66;;;21.32;100.00
23446;BME280;11895;48.738;9.320;2023-07-02T07:48:10;98439.19;;;21.75;100.00
23446;BME280;11895;48.738;9.320;2023-07-02T07:50:37;98428.03;;;21.59;100.00
23446;BME280;11895;48.738;9.320;2023-07-02T07:53:05;98427.47;;;22.38;100.00
23446;BME280;11895;48.738;9.320;2023-07-02T07:55:32;98430.41;;;22.90;100.00
23446;BME280;11895;48.738;9.320;2023-07-02T07:57:59;98437.88;;;23.24;100.00
23446;BME280;11895;48.738;9.320;2023-07-02T08:00:26;98429.22;;;22.93;100.00
23446;BME280;11895;48.738;9.320;2023-07-02T08:02:54;98423.28;;;23.23;100.00
23446;BME280;11895;48.738;9.320;2023-07-02T08:05:23;98430.47;;;23.16;100.00
23446;BME280;11895;48.738;9.320;2023-07-02T08:07:52;98423.03;;;22.73;100.00
23446;BME280;11895;48.738;9.320;2023-07-02T08:10:20;98418.84;;;23.30;100.00
23446;BME280;11895;48.738;9.320;2023-07-02T08:12:48;98424.53;;;23.55;100.00
23446;BME280;11895;48.738;9.320;2023-07-02T08:15:16;98418.25;;;23.45;100.00
23446;BME280;11895;48.738;9.320;2023-07-02T08:17:43;98421.88;;;23.19;100.00
23446;BME280;11895;48.738;9.320;2023-07-02T08:20:11;98422.25;;;23.76;100.00
23446;BME280;11895;48.738;9.320;2023-07-02T08:22:40;98418.81;;;23.74;100.00
23446;BME280;11895;48.738;9.320;2023-07-02T08:25:07;98421.66;;;23.13;100.00
23446;BME280;11895;48.738;9.320;2023-07-02T08:27:35;98418.69;;;23.58;100.00
23446;BME280;11895;48.738;9.320;2023-07-02T08:30:03;98431.09;;;22.74;100.00
23446;BME280;11895;48.738;9.320;2023-07-02T08:32:30;98426.03;;;23.23;100.00
23446;BME280;11895;48.738;9.320;2023-07-02T08:34:59;98432.94;;;23.27;100.00
23446;BME280;11895;48.738;9.320;2023-07-02T08:37:27;98429.28;;;23.71;98.01
23446;BME280;11895;48.738;9.320;2023-07-02T08:39:54;98428.72;;;23.67;96.94
23446;BME280;11895;48.738;9.320;2023-07-02T08:42:22;98435.22;;;23.40;96.96
23446;BME280;11895;48.738;9.320;2023-07-02T08:44:54;98430.44;;;23.68;95.10
23446;BME280;11895;48.738;9.320;2023-07-02T08:47:22;98441.44;;;23.16;98.28
23446;BME280;11895;48.738;9.320;2023-07-02T08:49:50;98430.75;;;23.13;97.73
23446;BME280;11895;48.738;9.320;2023-07-02T08:52:17;98435.69;;;23.27;97.25
23446;BME280;11895;48.738;9.320;2023-07-02T08:54:45;98436.47;;;23.20;97.18
23446;BME280;11895;48.738;9.320;2023-07-02T08:57:12;98421.06;;;23.53;96.39
23446;BME280;11895;48.738;9.320;2023-07-02T08:59:39;98431.84;;;23.72;95.28
23446;BME280;11895;48.738;9.320;2023-07-02T09:02:08;98427.66;;;23.60;89.70
23446;BME280;11895;48.738;9.320;2023-07-02T09:04:35;98418.81;;;23.74;88.38
23446;BME280;11895;48.738;9.320;2023-07-02T09:07:10;98430.25;;;23.96;90.52
23446;BME280;11895;48.738;9.320;2023-07-02T09:09:50;98421.44;;;23.84;84.57
23446;BME280;11895;48.738;9.320;2023-07-02T09:12:29;98439.28;;;23.54;92.26
23446;BME280;11895;48.738;9.320;2023-07-02T09:17:37;98428.59;;;23.77;86.56
23446;BME280;11895;48.738;9.320;2023-07-02T09:20:06;98428.16;;;23.90;87.15
23446;BME280;11895;48.738;9.320;2023-07-02T09:22:36;98431.06;;;23.88;85.73
23446;BME280;11895;48.738;9.320;2023-07-02T09:25:04;98428.16;;;23.90;89.35
23446;BME280;11895;48.738;9.320;2023-07-02T09:27:40;98419.50;;;24.19;86.61
23446;BME280;11895;48.738;9.320;2023-07-02T09:30:15;98418.66;;;24.26;86.95
23446;BME280;11895;48.738;9.320;2023-07-02T09:32:44;98428.13;;;24.32;78.03
23446;BME280;11895;48.738;9.320;2023-07-02T09:35:13;98433.16;;;24.36;76.29
23446;BME280;11895;48.738;9.320;2023-07-02T09:37:45;98418.66;;;24.26;77.37
23446;BME280;11895;48.738;9.320;2023-07-02T09:40:13;98427.69;;;24.45;77.16
23446;BME280;11895;48.738;9.320;2023-07-02T09:42:41;98417.03;;;24.74;74.81
23446;BME280;11895;48.738;9.320;2023-07-02T09:45:12;98416.03;;;24.83;74.17
23446;BME280;11895;48.738;9.320;2023-07-02T09:47:47;98424.41;;;24.49;71.76
23446;BME280;11895;48.738;9.320;2023-07-02T09:50:18;98416.25;;;24.31;73.53
23446;BME280;11895;48.738;9.320;2023-07-02T09:52:47;98414.44;;;23.98;78.38
23446;BME280;11895;48.738;9.320;2023-07-02T09:55:15;98407.94;;;24.07;76.92
23446;BME280;11895;48.738;9.320;2023-07-02T09:57:46;98416.75;;;23.76;83.13
23446;BME280;11895;48.738;9.320;2023-07-02T10:00:14;98419.72;;;24.33;81.98
23446;BME280;11895;48.738;9.320;2023-07-02T10:02:51;98401.06;;;24.61;76.82
23446;BME280;11895;48.738;9.320;2023-07-02T10:05:29;98402.94;;;24.94;76.10
23446;BME280;11895;48.738;9.320;2023-07-02T10:08:15;98402.28;;;25.08;72.31
23446;BME280;11895;48.738;9.320;2023-07-02T10:10:48;98400.34;;;25.33;70.55
23446;BME280;11895;48.738;9.320;2023-07-02T10:13:27;98404.00;;;24.76;72.71
23446;BME280;11895;48.738;9.320;2023-07-02T10:16:05;98402.94;;;24.77;70.19
23446;BME280;11895;48.738;9.320;2023-07-02T10:18:33;98405.34;;;24.97;74.67
23446;BME280;11895;48.738;9.320;2023-07-02T10:21:14;98414.16;;;25.25;69.44
23446;BME280;11895;48.738;9.320;2023-07-02T10:23:47;98396.75;;;24.67;73.13
23446;BME280;11895;48.738;9.320;2023-07-02T10:26:17;98409.66;;;24.99;72.89
23446;BME280;11895;48.738;9.320;2023-07-02T10:29:00;98393.09;;;25.48;74.46
23446;BME280;11895;48.738;9.320;2023-07-02T10:31:28;98394.28;;;25.54;65.62
23446;BME280;11895;48.738;9.320;2023-07-02T10:33:56;98399.16;;;24.78;67.00
23446;BME280;11895;48.738;9.320;2023-07-02T10:36:25;98413.59;;;24.48;66.43
23446;BME280;11895;48.738;9.320;2023-07-02T10:38:52;98402.22;;;24.43;67.85
23446;BME280;11895;48.738;9.320;2023-07-02T10:41:27;98401.72;;;24.47;69.04
23446;BME280;11895;48.738;9.320;2023-07-02T10:44:09;98401.22;;;24.68;61.29
23446;BME280;11895;48.738;9.320;2023-07-02T10:46:47;98390.53;;;25.30;54.53
23446;BME280;11895;48.738;9.320;2023-07-02T10:49:18;98390.16;;;25.50;54.24
23446;BME280;11895;48.738;9.320;2023-07-02T10:52:00;98392.97;;;25.09;55.81
23446;BME280;11895;48.738;9.320;2023-07-02T10:54:47;98388.81;;;24.97;62.44
23446;BME280;11895;48.738;9.320;2023-07-02T10:57:18;98385.28;;;25.60;59.35
23446;BME280;11895;48.738;9.320;2023-07-02T10:59:48;98390.03;;;25.91;59.24
23446;BME280;11895;48.738;9.320;2023-07-02T11:02:17;98385.56;;;25.81;50.22
23446;BME280;11895;48.738;9.320;2023-07-02T11:04:45;98405.91;;;25.72;50.73
23446;BME280;11895;48.738;9.320;2023-07-02T11:07:14;98401.44;;;25.87;51.82
23446;BME280;11895;48.738;9.320;2023-07-02T11:09:52;98404.97;;;26.44;48.58
23446;BME280;11895;48.738;9.320;2023-07-02T11:12:33;98404.47;;;26.40;50.43
23446;BME280;11895;48.738;9.320;2023-07-02T11:15:17;98392.59;;;26.85;47.78
23446;BME280;11895;48.738;9.320;2023-07-02T11:17:47;98394.13;;;27.11;45.77
23446;BME280;11895;48.738;9.320;2023-07-02T11:20:20;98393.91;;;26.44;47.37
23446;BME280;11895;48.738;9.320;2023-07-02T11:22:47;98395.50;;;26.30;48.90
23446;BME280;11895;48.738;9.320;2023-07-02T11:25:19;98393.56;;;26.47;47.22
23446;BME280;11895;48.738;9.320;2023-07-02T11:27:47;98405.34;;;26.86;44.23
23446;BME280;11895;48.738;9.320;2023-07-02T11:30:14;98385.66;;;26.35;44.99
23446;BME280;11895;48.738;9.320;2023-07-02T11:32:53;98381.47;;;26.48;44.71
23446;BME280;11895;48.738;9.320;2023-07-02T11:35:33;98377.91;;;27.08;45.48
23446;BME280;11895;48.738;9.320;2023-07-02T11:38:02;98388.44;;;27.27;42.67
23446;BME280;11895;48.738;9.320;2023-07-02T11:40:29;98380.97;;;27.13;45.27
23446;BME280;11895;48.738;9.320;2023-07-02T11:42:59;98385.78;;;26.42;42.23
23446;BME280;11895;48.738;9.320;2023-07-02T11:45:26;98376.25;;;26.99;43.23
23446;BME280;11895;48.738;9.320;2023-07-02T11:47:54;98384.94;;;27.63;39.00
23446;BME280;11895;48.738;9.320;2023-07-02T11:50:21;98361.25;;;27.46;40.87
23446;BME280;11895;48.738;9.320;2023-07-02T11:52:53;98388.16;;;26.76;38.60
23446;BME280;11895;48.738;9.320;2023-07-02T11:55:21;98370.44;;;27.61;37.02
23446;BME280;11895;48.738;9.320;2023-07-02T11:57:48;98366.91;;;27.52;37.79
23446;BME280;11895;48.738;9.320;2023-07-02T12:00:17;98362.63;;;26.74;39.70
23446;BME280;11895;48.738;9.320;2023-07-02T12:02:44;98370.44;;;26.39;41.17
23446;BME280;11895;48.738;9.320;2023-07-02T12:05:12;98363.38;;;27.88;38.82
23446;BME280;11895;48.738;9.320;2023-07-02T12:07:40;98363.09;;;28.49;37.55
23446;BME280;11895;48.738;9.320;2023-07-02T12:10:08;98354.97;;;30.09;34.59
23446;BME280;11895;48.738;9.320;2023-07-02T12:12:35;98343.41;;;31.66;32.65
23446;BME280;11895;48.738;9.320;2023-07-02T12:15:03;98359.72;;;32.27;30.10
23446;BME280;11895;48.738;9.320;2023-07-02T12:17:31;98360.53;;;33.36;28.66
23446;BME280;11895;48.738;9.320;2023-07-02T12:19:58;98357.56;;;34.96;26.79
23446;BME280;11895;48.738;9.320;2023-07-02T12:22:25;98363.09;;;34.06;26.45
23446;BME280;11895;48.738;9.320;2023-07-02T12:24:53;98363.09;;;34.84;27.54
23446;BME280;11895;48.738;9.320;2023-07-02T12:27:23;98348.06;;;35.74;25.87
23446;BME280;11895;48.738;9.320;2023-07-02T12:29:53;98356.88;;;35.12;25.96
23446;BME280;11895;48.738;9.320;2023-07-02T12:32:20;98359.16;;;35.03;25.91
23446;BME280;11895;48.738;9.320;2023-07-02T12:34:48;98366.22;;;32.97;27.36
23446;BME280;11895;48.738;9.320;2023-07-02T12:37:15;98356.03;;;33.10;27.27
23446;BME280;11895;48.738;9.320;2023-07-02T12:39:45;98356.31;;;33.02;28.24
23446;BME280;11895;48.738;9.320;2023-07-02T12:42:12;98352.56;;;32.44;28.86
23446;BME280;11895;48.738;9.320;2023-07-02T12:44:40;98341.47;;;31.73;29.62
23446;BME280;11895;48.738;9.320;2023-07-02T12:47:07;98343.66;;;31.51;31.01
23446;BME280;11895;48.738;9.320;2023-07-02T12:49:35;98339.38;;;31.02;30.02
23446;BME280;11895;48.738;9.320;2023-07-02T12:52:03;98354.38;;;31.21;28.91
23446;BME280;11895;48.738;9.320;2023-07-02T12:54:31;98352.59;;;31.93;28.65
23446;BME280;11895;48.738;9.320;2023-07-02T12:56:58;98353.44;;;32.83;27.71
23446;BME280;11895;48.738;9.320;2023-07-02T12:59:26;98339.88;;;34.84;26.62
23446;BME280;11895;48.738;9.320;2023-07-02T13:01:54;98347.84;;;36.27;24.40
23446;BME280;11895;48.738;9.320;2023-07-02T13:04:21;98345.00;;;37.80;22.63
23446;BME280;11895;48.738;9.320;2023-07-02T13:06:49;98342.19;;;35.40;23.58